Time;durP1;ratioP1;P1;durP2;ratioP2;P2;SDS_P1;SDS_P2;PMS_P1;PMS_P2;Temp;Humidity;BMP_temperature;BMP_pressure;BME280_temperature;BME280_humidity;BME280_pressure;Samples;Min_cycle;Max_cycle;Signal;HPM_P1;HPM_P2
2024/03/05 00:01:15;;;;;;;1.08;1.08;;;2.60;99.90;;;;;;5093318;28;20224;-74
2024/03/05 00:03:41;;;;;;;0.80;0.80;;;2.60;99.90;;;;;;5075177;28;20197;-74
2024/03/05 00:06:10;;;;;;;0.70;0.70;;;2.70;99.90;;;;;;5075572;28;20232;-74
2024/03/05 00:08:36;;;;;;;1.27;1.20;;;2.70;99.90;;;;;;5091761;28;20569;-74
2024/03/05 00:11:04;;;;;;;0.60;0.60;;;2.70;99.90;;;;;;5093428;28;20199;-74
2024/03/05 00:13:30;;;;;;;0.70;0.70;;;2.70;99.90;;;;;;5093213;28;20659;-74
2024/03/05 00:15:58;;;;;;;0.75;0.75;;;2.70;99.90;;;;;;5109167;28;20211;-74
2024/03/05 00:18:29;;;;;;;0.70;0.70;;;2.70;99.90;;;;;;5074884;28;20199;-74
2024/03/05 00:20:57;;;;;;;1.00;1.00;;;2.70;99.90;;;;;;5075027;28;20196;-73
2024/03/05 00:23:25;;;;;;;0.80;0.80;;;2.70;99.90;;;;;;5092806;28;20204;-73
2024/03/05 00:25:58;;;;;;;0.60;0.60;;;2.70;99.90;;;;;;5093251;28;20325;-74
2024/03/05 00:28:37;;;;;;;0.70;0.70;;;2.70;99.90;;;;;;5093078;28;20566;-74
2024/03/05 00:31:09;;;;;;;0.60;0.60;;;2.70;99.90;;;;;;5074101;28;20204;-74
2024/03/05 00:33:34;;;;;;;0.90;0.90;;;2.60;99.90;;;;;;5092949;28;20192;-74
2024/03/05 00:36:00;;;;;;;0.63;0.63;;;2.60;99.90;;;;;;5092910;28;20566;-74
2024/03/05 00:38:28;;;;;;;0.75;0.75;;;2.70;99.90;;;;;;5074718;28;20291;-74
2024/03/05 00:40:54;;;;;;;1.77;1.42;;;2.60;99.90;;;;;;5074645;28;20236;-74
2024/03/05 00:43:20;;;;;;;1.15;1.08;;;2.60;99.90;;;;;;5092742;28;20287;-74
2024/03/05 00:45:46;;;;;;;0.70;0.70;;;2.60;99.90;;;;;;5074556;28;20199;-74
2024/03/05 00:48:12;;;;;;;1.00;1.00;;;2.60;99.90;;;;;;5092950;28;20191;-73
2024/03/05 00:50:37;;;;;;;0.65;0.65;;;2.60;99.90;;;;;;5092616;28;20188;-74
2024/03/05 00:53:04;;;;;;;0.57;0.57;;;2.60;99.90;;;;;;5092780;28;20271;-74
2024/03/05 00:55:30;;;;;;;0.70;0.70;;;2.60;99.90;;;;;;5108223;28;20196;-74
2024/03/05 00:57:56;;;;;;;0.70;0.70;;;2.70;99.90;;;;;;5092738;28;20192;-74
2024/03/05 01:00:24;;;;;;;0.60;0.60;;;2.70;99.90;;;;;;5074393;28;20207;-73
2024/03/05 01:02:50;;;;;;;0.60;0.60;;;2.60;99.90;;;;;;5073517;28;20561;-74
2024/03/05 01:05:16;;;;;;;0.70;0.70;;;2.60;99.90;;;;;;5093300;28;20278;-74
2024/03/05 01:07:41;;;;;;;0.65;0.65;;;2.60;99.90;;;;;;5074322;28;20699;-74
2024/03/05 01:10:08;;;;;;;0.93;0.93;;;2.60;99.90;;;;;;5074416;28;20253;-74
2024/03/05 01:12:34;;;;;;;0.75;0.75;;;2.60;99.90;;;;;;5092447;28;20676;-74
2024/03/05 01:15:01;;;;;;;0.88;0.88;;;2.60;99.90;;;;;;5092616;28;20187;-74
2024/03/05 01:17:27;;;;;;;0.70;0.70;;;2.50;99.90;;;;;;5092371;28;20644;-74
2024/03/05 01:19:53;;;;;;;0.70;0.70;;;2.50;99.90;;;;;;5093418;28;20198;-74
2024/03/05 01:22:19;;;;;;;2.38;1.88;;;2.50;99.90;;;;;;5096593;28;20587;-74
2024/03/05 01:24:45;;;;;;;1.27;1.17;;;2.50;99.90;;;;;;5096665;28;20196;-73
2024/03/05 01:27:11;;;;;;;0.60;0.60;;;2.50;99.90;;;;;;5096595;28;20215;-74
2024/03/05 01:29:37;;;;;;;3.85;2.55;;;2.50;99.90;;;;;;5096370;28;20271;-74
2024/03/05 01:32:03;;;;;;;0.70;0.70;;;2.50;99.90;;;;;;5095323;28;20253;-74
2024/03/05 01:34:29;;;;;;;0.50;0.50;;;2.50;99.90;;;;;;5096310;28;20184;-74
2024/03/05 01:36:58;;;;;;;0.65;0.65;;;2.50;99.90;;;;;;5096742;28;20199;-73
2024/03/05 01:39:25;;;;;;;1.23;1.13;;;2.50;99.90;;;;;;5098044;28;20442;-73
2024/03/05 01:41:52;;;;;;;0.60;0.60;;;2.50;99.90;;;;;;5116768;28;20208;-74
2024/03/05 01:44:21;;;;;;;0.65;0.65;;;2.50;99.90;;;;;;5116634;28;20236;-74
2024/03/05 01:46:49;;;;;;;0.88;0.88;;;2.40;99.90;;;;;;5116679;28;20187;-74
2024/03/05 01:49:16;;;;;;;0.60;0.60;;;2.50;99.90;;;;;;5132591;27;20853;-75
2024/03/05 01:51:44;;;;;;;0.60;0.60;;;2.50;99.90;;;;;;5117082;28;20199;-74
2024/03/05 01:54:11;;;;;;;0.90;0.90;;;2.40;99.90;;;;;;5116990;28;20184;-73
2024/03/05 01:56:37;;;;;;;0.80;0.80;;;2.40;99.90;;;;;;5116894;28;20238;-74
2024/03/05 01:59:02;;;;;;;0.60;0.60;;;2.50;99.90;;;;;;5116105;28;20667;-74
2024/03/05 02:01:30;;;;;;;1.70;1.33;;;2.40;99.90;;;;;;5113928;28;20589;-74
2024/03/05 02:03:58;;;;;;;0.60;0.60;;;2.40;99.90;;;;;;5116331;28;20740;-74
2024/03/05 02:06:24;;;;;;;0.70;0.70;;;2.40;99.90;;;;;;5116345;28;20192;-75
2024/03/05 02:08:51;;;;;;;0.95;0.95;;;2.40;99.90;;;;;;5098041;28;20195;-71
2024/03/05 02:11:17;;;;;;;1.17;1.08;;;2.40;99.90;;;;;;5116308;28;20659;-71
2024/03/05 02:13:43;;;;;;;0.80;0.80;;;2.40;99.90;;;;;;5116171;28;20195;-71
2024/03/05 02:16:09;;;;;;;0.77;0.77;;;2.40;99.90;;;;;;5116174;28;20241;-72
2024/03/05 02:18:35;;;;;;;1.10;1.10;;;2.30;99.90;;;;;;5115771;28;20192;-73
2024/03/05 02:21:05;;;;;;;0.70;0.70;;;2.30;99.90;;;;;;5115782;28;20191;-72
2024/03/05 02:23:32;;;;;;;0.73;0.73;;;2.30;99.90;;;;;;5115833;28;20208;-73
2024/03/05 02:26:00;;;;;;;0.82;0.77;;;2.30;99.90;;;;;;5116032;28;20187;-72
2024/03/05 02:28:26;;;;;;;0.70;0.70;;;2.30;99.90;;;;;;5115445;28;20187;-72
2024/03/05 02:30:51;;;;;;;0.77;0.77;;;2.30;99.90;;;;;;5115158;28;20187;-72
2024/03/05 02:33:18;;;;;;;0.70;0.70;;;2.30;99.90;;;;;;5114745;28;20542;-73
2024/03/05 02:35:46;;;;;;;0.70;0.70;;;2.30;99.90;;;;;;5115773;28;20198;-73
2024/03/05 02:38:12;;;;;;;0.60;0.60;;;2.30;99.90;;;;;;5097482;28;20199;-73
2024/03/05 02:40:38;;;;;;;0.70;0.70;;;2.30;99.90;;;;;;5115528;28;20195;-73
2024/03/05 02:43:06;;;;;;;0.60;0.60;;;2.30;99.90;;;;;;5115450;28;20202;-72
2024/03/05 02:45:32;;;;;;;0.60;0.60;;;2.30;99.90;;;;;;5115462;28;20299;-72
2024/03/05 02:48:03;;;;;;;2.25;1.30;;;2.20;99.90;;;;;;5115622;28;20196;-73
2024/03/05 02:50:28;;;;;;;0.70;0.70;;;2.30;99.90;;;;;;5115283;28;20214;-73
2024/03/05 02:52:54;;;;;;;0.70;0.70;;;2.20;99.90;;;;;;5115443;28;20196;-73
2024/03/05 02:55:20;;;;;;;0.70;0.70;;;2.20;99.90;;;;;;5115025;28;20191;-72
2024/03/05 02:57:46;;;;;;;0.70;0.70;;;2.20;99.90;;;;;;5115114;28;20679;-73
2024/03/05 03:00:18;;;;;;;0.68;0.68;;;2.20;99.90;;;;;;5096951;28;20206;-73
2024/03/05 03:02:48;;;;;;;0.70;0.70;;;2.20;99.90;;;;;;5114953;28;20320;-73
2024/03/05 03:05:21;;;;;;;1.27;1.17;;;2.10;99.90;;;;;;5115207;28;20198;-73
2024/03/05 03:07:47;;;;;;;0.73;0.73;;;2.20;99.90;;;;;;5115153;28;20194;-73
2024/03/05 03:10:13;;;;;;;0.70;0.70;;;2.20;99.90;;;;;;5115145;28;20219;-73
2024/03/05 03:12:42;;;;;;;0.50;0.50;;;2.20;99.90;;;;;;5114904;28;20221;-72
2024/03/05 03:15:09;;;;;;;1.23;1.13;;;2.20;99.90;;;;;;5096674;28;20195;-72
2024/03/05 03:17:37;;;;;;;0.73;0.73;;;2.10;99.90;;;;;;5114820;28;20191;-72
2024/03/05 03:20:04;;;;;;;0.57;0.57;;;2.10;99.90;;;;;;5114970;28;20307;-70
2024/03/05 03:22:30;;;;;;;0.60;0.60;;;2.10;99.90;;;;;;5114582;28;20294;-70
2024/03/05 03:24:57;;;;;;;0.73;0.73;;;2.10;99.90;;;;;;5114762;28;20565;-71
2024/03/05 03:27:24;;;;;;;0.80;0.80;;;2.10;99.90;;;;;;5130435;27;20187;-71
2024/03/05 03:29:51;;;;;;;0.50;0.50;;;2.10;99.90;;;;;;5114724;28;20191;-72
2024/03/05 03:32:19;;;;;;;0.70;0.70;;;2.10;99.90;;;;;;5114673;28;20215;-70
2024/03/05 03:34:45;;;;;;;1.23;1.17;;;2.10;99.90;;;;;;5114525;28;20655;-70
2024/03/05 03:37:12;;;;;;;0.70;0.70;;;2.00;99.90;;;;;;5114597;28;20244;-70
2024/03/05 03:39:41;;;;;;;0.70;0.70;;;2.00;99.90;;;;;;5114410;28;20202;-70
2024/03/05 03:42:10;;;;;;;0.70;0.70;;;2.00;99.90;;;;;;5114412;28;20245;-70
2024/03/05 03:44:36;;;;;;;2.17;1.10;;;1.90;99.90;;;;;;5113960;28;20187;-70
2024/03/05 03:47:02;;;;;;;2.70;2.15;;;1.90;99.90;;;;;;5096137;28;20709;-70
2024/03/05 03:49:27;;;;;;;0.70;0.70;;;1.80;99.90;;;;;;5114124;28;20223;-70
2024/03/05 03:51:53;;;;;;;0.70;0.70;;;1.80;99.90;;;;;;5113946;28;20191;-70
2024/03/05 03:54:20;;;;;;;0.70;0.70;;;1.80;99.90;;;;;;5113968;28;20198;-71
2024/03/05 03:56:46;;;;;;;0.63;0.63;;;1.80;99.90;;;;;;5114214;28;20188;-70
2024/03/05 03:59:13;;;;;;;0.70;0.70;;;1.80;99.90;;;;;;5114147;28;20200;-70
2024/03/05 04:01:39;;;;;;;0.70;0.70;;;1.80;99.90;;;;;;5099896;28;20731;-71
2024/03/05 04:04:04;;;;;;;0.70;0.70;;;1.80;99.90;;;;;;5107353;28;20204;-69
2024/03/05 04:06:31;;;;;;;0.75;0.75;;;1.90;99.90;;;;;;5113604;28;20213;-70
2024/03/05 04:08:57;;;;;;;1.58;1.42;;;1.80;99.90;;;;;;5113317;28;20214;-70
2024/03/05 04:11:22;;;;;;;0.90;0.90;;;1.80;99.90;;;;;;5113754;28;20183;-69
2024/03/05 04:13:49;;;;;;;0.75;0.75;;;1.70;99.90;;;;;;5113814;28;20198;-70
2024/03/05 04:16:14;;;;;;;0.73;0.73;;;1.70;99.90;;;;;;5129600;27;20211;-70
2024/03/05 04:18:40;;;;;;;0.85;0.85;;;1.70;99.90;;;;;;5113645;28;20195;-71
2024/03/05 04:21:06;;;;;;;0.70;0.70;;;1.70;99.90;;;;;;5113725;28;20228;-71
2024/03/05 04:23:33;;;;;;;0.85;0.85;;;1.70;99.90;;;;;;5113463;28;20234;-70
2024/03/05 04:26:01;;;;;;;0.70;0.70;;;1.60;99.90;;;;;;5113723;28;20187;-70
2024/03/05 04:28:35;;;;;;;0.60;0.60;;;1.70;99.90;;;;;;5113365;28;20666;-71
2024/03/05 04:31:08;;;;;;;0.77;0.77;;;1.70;99.90;;;;;;5113580;28;20651;-73
2024/03/05 04:33:36;;;;;;;0.60;0.60;;;1.60;99.90;;;;;;5113376;28;20220;-73
2024/03/05 04:36:09;;;;;;;0.70;0.70;;;1.60;99.90;;;;;;5113532;28;20192;-72
2024/03/05 04:38:35;;;;;;;3.28;1.80;;;1.60;99.90;;;;;;5113268;28;20274;-72
2024/03/05 04:41:02;;;;;;;0.80;0.80;;;1.60;99.90;;;;;;5113458;28;20721;-73
2024/03/05 04:43:28;;;;;;;0.57;0.57;;;1.60;99.90;;;;;;5113010;28;20264;-73
2024/03/05 04:45:53;;;;;;;0.55;0.55;;;1.60;99.90;;;;;;5113372;28;20187;-72
2024/03/05 04:48:19;;;;;;;0.70;0.70;;;1.60;99.90;;;;;;5112635;28;20219;-73
2024/03/05 04:50:46;;;;;;;0.80;0.80;;;1.60;99.90;;;;;;5095271;28;20195;-72
2024/03/05 04:53:12;;;;;;;0.60;0.60;;;1.60;99.90;;;;;;5094954;28;20195;-72
2024/03/05 04:55:38;;;;;;;0.60;0.60;;;1.60;99.90;;;;;;5112659;28;20702;-73
2024/03/05 04:58:05;;;;;;;0.90;0.80;;;1.60;99.90;;;;;;5113131;28;20239;-73
2024/03/05 05:00:31;;;;;;;1.25;1.20;;;1.60;99.90;;;;;;5112985;28;20199;-74
2024/03/05 05:02:56;;;;;;;0.90;0.90;;;1.60;99.90;;;;;;5112897;28;20215;-74
2024/03/05 05:05:24;;;;;;;0.70;0.70;;;1.50;99.90;;;;;;5112867;28;20192;-73
2024/03/05 05:07:50;;;;;;;0.60;0.60;;;1.50;99.90;;;;;;5113140;28;20191;-73
2024/03/05 05:10:16;;;;;;;0.80;0.80;;;1.50;99.90;;;;;;5113002;28;20192;-73
2024/03/05 05:12:44;;;;;;;0.63;0.63;;;1.50;99.90;;;;;;5112881;28;20278;-72
2024/03/05 05:15:11;;;;;;;0.80;0.80;;;1.50;99.90;;;;;;5112968;28;20207;-72
2024/03/05 05:17:38;;;;;;;0.80;0.80;;;1.50;99.90;;;;;;5128632;28;20191;-71
2024/03/05 05:20:07;;;;;;;0.90;0.90;;;1.50;99.90;;;;;;5112840;28;20192;-71
2024/03/05 05:22:33;;;;;;;0.73;0.73;;;1.50;99.90;;;;;;5128347;28;20210;-73
2024/03/05 05:24:58;;;;;;;0.70;0.70;;;1.50;99.90;;;;;;5112841;28;20191;-74
2024/03/05 05:27:24;;;;;;;0.70;0.70;;;1.50;99.90;;;;;;5112697;28;20196;-73
2024/03/05 05:29:50;;;;;;;0.70;0.70;;;1.50;99.90;;;;;;5112822;28;20192;-73
2024/03/05 05:32:16;;;;;;;0.70;0.70;;;1.50;99.90;;;;;;5113128;28;20278;-73
2024/03/05 05:34:42;;;;;;;0.80;0.80;;;1.50;99.90;;;;;;5112617;28;20236;-74
2024/03/05 05:37:08;;;;;;;0.75;0.75;;;1.50;99.90;;;;;;5112844;28;20215;-74
2024/03/05 05:39:33;;;;;;;0.70;0.70;;;1.40;99.90;;;;;;5094608;28;20276;-75
2024/03/05 05:41:59;;;;;;;0.70;0.70;;;1.40;99.90;;;;;;5112559;28;20207;-75
2024/03/05 05:44:25;;;;;;;0.60;0.60;;;1.40;99.90;;;;;;5111958;28;20202;-75
2024/03/05 05:46:50;;;;;;;3.70;2.30;;;1.40;99.90;;;;;;5094352;28;20195;-75
2024/03/05 05:49:19;;;;;;;0.88;0.88;;;1.40;99.90;;;;;;5094377;28;20194;-75
2024/03/05 05:51:48;;;;;;;0.70;0.70;;;1.50;99.90;;;;;;5112671;28;20247;-75
2024/03/05 05:54:16;;;;;;;3.53;2.20;;;1.40;99.90;;;;;;5112593;28;20659;-75
2024/03/05 05:56:41;;;;;;;0.77;0.77;;;1.40;99.90;;;;;;5112416;28;20341;-75
2024/03/05 05:59:11;;;;;;;1.73;1.63;;;1.40;99.90;;;;;;5112592;28;20219;-76
2024/03/05 06:01:37;;;;;;;0.60;0.60;;;1.40;99.90;;;;;;5093779;28;20589;-75
2024/03/05 06:04:09;;;;;;;0.68;0.68;;;1.40;99.90;;;;;;5112480;28;20256;-75
2024/03/05 06:06:36;;;;;;;3.83;2.15;;;1.40;99.90;;;;;;5112554;28;20188;-75
2024/03/05 06:09:08;;;;;;;1.20;1.02;;;1.40;99.90;;;;;;5116345;28;20187;-75
2024/03/05 06:11:35;;;;;;;0.70;0.70;;;1.40;99.90;;;;;;5097818;28;20195;-75
2024/03/05 06:14:00;;;;;;;2.22;2.03;;;1.30;99.90;;;;;;5116204;28;20195;-75
2024/03/05 06:16:26;;;;;;;0.70;0.70;;;1.40;99.90;;;;;;5116064;28;20555;-75
2024/03/05 06:18:51;;;;;;;0.68;0.68;;;1.40;99.90;;;;;;5116092;28;20194;-75
2024/03/05 06:21:17;;;;;;;0.60;0.60;;;1.40;99.90;;;;;;5116046;28;20188;-75
2024/03/05 06:23:43;;;;;;;0.60;0.60;;;1.40;99.90;;;;;;5115562;28;20272;-75
2024/03/05 06:26:09;;;;;;;0.70;0.70;;;1.40;99.90;;;;;;5116032;28;20195;-75
2024/03/05 06:28:37;;;;;;;0.75;0.75;;;1.40;99.90;;;;;;5115749;28;20199;-75
2024/03/05 06:31:04;;;;;;;0.70;0.70;;;1.40;99.90;;;;;;5115888;28;20187;-75
2024/03/05 06:33:30;;;;;;;0.70;0.70;;;1.40;99.90;;;;;;5115674;28;20183;-75
2024/03/05 06:35:58;;;;;;;0.73;0.73;;;1.40;99.90;;;;;;5115776;28;20191;-75
2024/03/05 06:38:24;;;;;;;0.80;0.80;;;1.40;99.90;;;;;;5115648;28;20195;-75
2024/03/05 06:40:50;;;;;;;0.70;0.70;;;1.50;99.90;;;;;;5113795;28;20187;-75
2024/03/05 06:43:21;;;;;;;0.90;0.90;;;1.50;99.90;;;;;;5115529;28;20574;-75
2024/03/05 06:45:47;;;;;;;0.60;0.60;;;1.50;99.90;;;;;;5115635;28;20190;-75
2024/03/05 06:48:22;;;;;;;0.70;0.70;;;1.50;99.90;;;;;;5094632;28;20675;-74
2024/03/05 06:50:52;;;;;;;1.00;1.00;;;1.50;99.90;;;;;;5095182;28;20667;-71
2024/03/05 06:58:47;;;;;;;0.70;0.70;;;1.50;99.90;;;;;;5094957;28;20199;-73
2024/03/05 07:01:13;;;;;;;0.70;0.70;;;1.60;99.90;;;;;;5112597;28;20816;-72
2024/03/05 07:03:40;;;;;;;0.70;0.70;;;1.60;99.90;;;;;;5114984;28;20798;-71
2024/03/05 07:06:07;;;;;;;0.80;0.80;;;1.60;99.90;;;;;;5096766;28;20278;-71
2024/03/05 07:08:40;;;;;;;0.65;0.65;;;1.70;99.90;;;;;;5114978;28;20190;-72
2024/03/05 07:11:08;;;;;;;0.60;0.60;;;1.70;99.90;;;;;;5115031;28;20187;-72
2024/03/05 07:13:34;;;;;;;0.82;0.82;;;1.70;99.90;;;;;;5114853;28;20194;-72
2024/03/05 07:16:00;;;;;;;0.88;0.88;;;1.70;99.90;;;;;;5115015;28;20191;-72
2024/03/05 07:18:26;;;;;;;0.63;0.63;;;1.80;99.90;;;;;;5114326;28;20576;-72
2024/03/05 07:20:52;;;;;;;0.80;0.80;;;1.80;99.90;;;;;;5114880;28;20199;-72
2024/03/05 07:23:20;;;;;;;1.95;1.13;;;1.80;99.90;;;;;;5114677;28;20203;-72
2024/03/05 07:25:46;;;;;;;0.90;0.90;;;1.90;99.90;;;;;;5114748;28;20187;-72
2024/03/05 07:28:11;;;;;;;0.82;0.82;;;2.00;99.90;;;;;;5096492;28;20663;-72
2024/03/05 07:30:41;;;;;;;0.75;0.75;;;2.00;99.90;;;;;;5114583;28;20217;-72
2024/03/05 07:33:09;;;;;;;0.93;0.93;;;2.00;99.90;;;;;;5114609;28;20192;-72
2024/03/05 07:35:36;;;;;;;0.70;0.70;;;2.00;99.90;;;;;;5114460;28;20210;-72
2024/03/05 07:38:01;;;;;;;0.90;0.90;;;2.00;99.90;;;;;;5111246;28;20203;-71
2024/03/05 07:40:27;;;;;;;1.02;1.02;;;2.00;99.90;;;;;;5114371;28;20206;-72
2024/03/05 07:42:53;;;;;;;0.90;0.90;;;2.00;99.90;;;;;;5114253;28;20252;-72
2024/03/05 07:45:21;;;;;;;0.70;0.70;;;2.00;99.90;;;;;;5114284;28;20188;-72
2024/03/05 07:47:48;;;;;;;0.60;0.60;;;1.90;99.90;;;;;;5114376;28;20211;-72
2024/03/05 07:50:14;;;;;;;1.27;1.17;;;1.90;99.90;;;;;;5114322;28;20195;-72
2024/03/05 07:52:47;;;;;;;1.15;1.13;;;1.90;99.90;;;;;;5114135;28;20282;-71
2024/03/05 07:55:18;;;;;;;0.95;0.95;;;2.00;99.90;;;;;;5114204;28;20244;-72
2024/03/05 07:57:45;;;;;;;2.70;1.70;;;1.90;99.90;;;;;;5114038;28;20682;-72
2024/03/05 08:00:13;;;;;;;0.70;0.70;;;1.90;99.90;;;;;;5114281;28;20280;-72
2024/03/05 08:02:45;;;;;;;0.60;0.60;;;1.90;99.90;;;;;;5113656;28;20326;-72
2024/03/05 08:05:11;;;;;;;1.23;1.13;;;1.90;99.90;;;;;;5114004;28;20195;-72
2024/03/05 08:07:37;;;;;;;0.95;0.95;;;1.90;99.90;;;;;;5113767;28;20195;-72
2024/03/05 08:10:08;;;;;;;1.17;1.17;;;1.90;99.90;;;;;;5113897;28;20191;-72
2024/03/05 08:12:42;;;;;;;0.90;0.90;;;1.90;99.90;;;;;;5113734;28;20187;-72
2024/03/05 08:15:12;;;;;;;0.80;0.80;;;1.90;99.90;;;;;;5113780;28;20672;-72
2024/03/05 08:17:39;;;;;;;0.77;0.77;;;1.90;99.90;;;;;;5113672;28;21198;-72
2024/03/05 08:20:06;;;;;;;1.35;1.25;;;2.00;99.90;;;;;;5113654;28;20198;-72
2024/03/05 08:22:34;;;;;;;0.70;0.70;;;1.90;99.90;;;;;;5129355;27;20551;-72
2024/03/05 08:25:09;;;;;;;0.95;0.95;;;2.00;99.90;;;;;;5113602;28;20190;-72
2024/03/05 08:27:41;;;;;;;0.95;0.95;;;2.00;99.90;;;;;;5113425;28;20195;-73
2024/03/05 08:30:15;;;;;;;0.60;0.60;;;2.00;99.90;;;;;;5112781;28;20187;-72
2024/03/05 08:32:41;;;;;;;0.98;0.98;;;2.10;99.90;;;;;;5113409;28;20218;-72
2024/03/05 08:35:11;;;;;;;0.63;0.63;;;2.10;99.90;;;;;;5112957;28;20255;-72
2024/03/05 08:37:38;;;;;;;1.30;1.25;;;2.20;99.90;;;;;;5113327;28;20184;-72
2024/03/05 08:40:04;;;;;;;0.68;0.68;;;2.20;99.90;;;;;;5113416;28;20199;-72
2024/03/05 08:42:30;;;;;;;0.85;0.85;;;2.30;99.90;;;;;;5113164;28;20231;-72
2024/03/05 08:44:56;;;;;;;0.60;0.60;;;2.40;99.90;;;;;;5113173;28;20206;-73
2024/03/05 08:47:22;;;;;;;0.90;0.90;;;2.50;99.90;;;;;;5113266;28;20191;-73
2024/03/05 08:49:50;;;;;;;0.60;0.60;;;2.40;99.90;;;;;;5113261;28;20529;-72
2024/03/05 08:52:17;;;;;;;0.65;0.65;;;2.50;99.90;;;;;;5095380;28;20196;-72
2024/03/05 08:54:43;;;;;;;0.70;0.70;;;2.40;99.90;;;;;;5113290;28;20188;-72
2024/03/05 08:57:09;;;;;;;0.60;0.60;;;2.50;99.90;;;;;;5113187;28;20200;-72
2024/03/05 08:59:35;;;;;;;1.15;0.85;;;2.50;99.90;;;;;;5094708;28;20219;-71
2024/03/05 09:02:02;;;;;;;0.82;0.82;;;2.50;99.90;;;;;;5112884;28;20663;-72
2024/03/05 09:04:28;;;;;;;1.20;1.10;;;2.50;99.90;;;;;;5112834;28;20187;-72
2024/03/05 09:06:54;;;;;;;0.70;0.70;;;2.60;99.90;;;;;;5113505;28;20669;-72
2024/03/05 09:09:20;;;;;;;1.27;1.17;;;2.60;99.90;;;;;;5112874;28;20188;-75
2024/03/05 09:11:49;;;;;;;0.90;0.90;;;2.60;99.90;;;;;;5094710;28;20221;-75
2024/03/05 09:14:15;;;;;;;0.80;0.80;;;2.70;99.90;;;;;;5112922;28;20695;-75
2024/03/05 09:16:41;;;;;;;0.90;0.90;;;2.80;99.90;;;;;;5112830;28;20194;-75
2024/03/05 09:19:06;;;;;;;0.80;0.80;;;2.90;99.90;;;;;;5094556;28;20199;-75
2024/03/05 09:21:32;;;;;;;0.75;0.75;;;2.90;99.90;;;;;;5112623;28;20282;-75
2024/03/05 09:23:59;;;;;;;0.70;0.70;;;2.90;99.90;;;;;;5112816;28;20647;-75
2024/03/05 09:26:25;;;;;;;0.52;0.52;;;2.90;99.90;;;;;;5112685;28;20183;-75
2024/03/05 09:28:51;;;;;;;0.80;0.80;;;2.90;99.90;;;;;;5112808;28;20551;-74
2024/03/05 09:31:18;;;;;;;0.90;0.90;;;3.00;99.90;;;;;;5112046;28;20202;-75
2024/03/05 09:33:44;;;;;;;1.15;1.15;;;3.00;99.90;;;;;;5112755;28;20195;-75
2024/03/05 09:36:10;;;;;;;0.63;0.63;;;3.10;99.90;;;;;;5112788;28;20671;-75
2024/03/05 09:38:36;;;;;;;0.60;0.60;;;3.10;99.90;;;;;;5112424;28;20199;-74
2024/03/05 09:41:07;;;;;;;0.70;0.70;;;3.20;99.90;;;;;;5113761;28;20195;-74
2024/03/05 09:43:35;;;;;;;0.60;0.60;;;3.20;99.90;;;;;;5116472;28;20199;-74
2024/03/05 09:46:05;;;;;;;0.70;0.70;;;3.40;99.90;;;;;;5116760;28;20191;-75
2024/03/05 09:48:34;;;;;;;0.80;0.80;;;3.30;99.90;;;;;;5116567;28;20187;-74
2024/03/05 09:51:00;;;;;;;0.70;0.70;;;3.20;99.90;;;;;;5098351;28;20278;-75
2024/03/05 09:53:29;;;;;;;0.73;0.73;;;3.20;99.90;;;;;;5116414;28;20206;-74
2024/03/05 09:55:55;;;;;;;0.60;0.60;;;3.20;99.90;;;;;;5116717;28;20219;-74
2024/03/05 09:58:38;;;;;;;0.60;0.60;;;3.20;99.90;;;;;;5116437;28;20230;-74
2024/03/05 10:01:05;;;;;;;0.60;0.60;;;3.20;99.90;;;;;;5116446;28;20238;-74
2024/03/05 10:03:38;;;;;;;1.52;1.42;;;3.20;99.90;;;;;;5116050;28;20207;-75
2024/03/05 10:06:07;;;;;;;0.80;0.80;;;3.30;99.90;;;;;;5116351;28;20188;-75
2024/03/05 10:08:33;;;;;;;1.05;1.05;;;3.30;99.90;;;;;;5115978;28;20271;-74
2024/03/05 10:11:06;;;;;;;0.55;0.55;;;3.30;99.90;;;;;;5116250;28;20237;-75
2024/03/05 10:13:33;;;;;;;1.10;1.05;;;3.30;99.90;;;;;;5116021;28;20562;-75
2024/03/05 10:16:22;;;;;;;0.73;0.73;;;3.30;99.90;;;;;;5116229;28;20223;-74
2024/03/05 10:18:49;;;;;;;0.57;0.57;;;3.10;99.90;;;;;;5116212;28;20184;-74
2024/03/05 10:21:18;;;;;;;0.63;0.63;;;3.10;99.90;;;;;;5115976;28;20735;-75
2024/03/05 10:24:04;;;;;;;0.90;0.90;;;3.10;99.90;;;;;;5116136;28;20210;-74
2024/03/05 10:26:31;;;;;;;0.70;0.70;;;3.10;99.90;;;;;;5112490;28;20619;-75
2024/03/05 10:29:07;;;;;;;0.70;0.70;;;3.00;99.90;;;;;;5115822;28;20643;-75
2024/03/05 10:31:38;;;;;;;0.70;0.70;;;3.00;99.90;;;;;;5097351;28;20197;-75
2024/03/05 10:34:04;;;;;;;0.95;0.95;;;3.00;99.90;;;;;;5115873;28;20677;-74
2024/03/05 10:36:33;;;;;;;0.63;0.63;;;3.00;99.90;;;;;;5115635;28;20200;-74
2024/03/05 10:38:59;;;;;;;0.60;0.60;;;3.10;99.90;;;;;;5097424;28;20199;-75
2024/03/05 10:41:34;;;;;;;0.63;0.63;;;3.10;99.90;;;;;;5115480;28;20221;-74
2024/03/05 10:44:00;;;;;;;1.00;1.00;;;3.00;99.90;;;;;;5115598;28;20195;-73
2024/03/05 10:46:30;;;;;;;0.90;0.90;;;3.00;99.90;;;;;;5115314;28;20260;-74
2024/03/05 10:48:58;;;;;;;0.70;0.70;;;3.10;99.90;;;;;;5115610;28;20192;-74
2024/03/05 10:51:28;;;;;;;0.60;0.60;;;3.10;99.90;;;;;;5115421;28;20187;-74
2024/03/05 10:54:00;;;;;;;0.80;0.80;;;3.00;99.90;;;;;;5130559;27;20207;-74
2024/03/05 10:56:27;;;;;;;0.80;0.80;;;3.10;99.90;;;;;;5115191;28;20199;-73
2024/03/05 11:01:38;;;;;;;0.50;0.50;;;3.20;99.90;;;;;;5115229;28;20234;-74
2024/03/05 11:04:14;;;;;;;0.85;0.85;;;3.20;99.90;;;;;;5115222;28;20659;-73
2024/03/05 11:06:41;;;;;;;0.73;0.73;;;3.20;99.90;;;;;;5115092;28;20318;-73
2024/03/05 11:09:10;;;;;;;0.60;0.60;;;3.20;99.90;;;;;;5096731;28;20192;-73
2024/03/05 11:11:44;;;;;;;0.70;0.70;;;3.20;99.90;;;;;;5114899;28;20195;-73
2024/03/05 11:14:10;;;;;;;0.50;0.50;;;3.10;99.90;;;;;;5096727;28;20192;-74
2024/03/05 11:16:37;;;;;;;0.60;0.60;;;3.00;99.90;;;;;;5114866;28;20651;-74
2024/03/05 11:19:09;;;;;;;0.70;0.70;;;3.10;99.90;;;;;;5115005;28;20537;-74
2024/03/05 11:21:37;;;;;;;0.63;0.63;;;3.00;99.90;;;;;;5114366;28;20191;-74
2024/03/05 11:24:04;;;;;;;0.93;0.93;;;3.00;99.90;;;;;;5114437;28;20682;-74
2024/03/05 11:26:31;;;;;;;0.75;0.75;;;3.00;99.90;;;;;;5096316;28;20191;-73
2024/03/05 11:29:16;;;;;;;0.80;0.80;;;2.90;99.90;;;;;;5114834;28;20191;-73
2024/03/05 11:31:47;;;;;;;0.80;0.75;;;2.90;99.90;;;;;;5114807;28;20670;-72
2024/03/05 11:34:13;;;;;;;0.70;0.70;;;3.00;99.90;;;;;;5114676;28;20204;-72
2024/03/05 11:36:40;;;;;;;1.17;1.15;;;3.00;99.90;;;;;;5114523;28;20187;-72
2024/03/05 11:39:09;;;;;;;25.73;1.60;;;3.00;99.90;;;;;;5113709;28;20895;-72
2024/03/05 11:41:42;;;;;;;0.60;0.60;;;3.00;99.90;;;;;;5114274;28;20549;-73
2024/03/05 11:44:12;;;;;;;0.65;0.65;;;3.00;99.90;;;;;;5114429;28;20192;-72
2024/03/05 11:46:49;;;;;;;2.17;1.05;;;3.00;99.90;;;;;;5114406;28;20213;-74
2024/03/05 11:49:16;;;;;;;1.05;1.05;;;3.00;99.90;;;;;;5114430;28;20183;-74
2024/03/05 11:51:44;;;;;;;0.70;0.70;;;2.90;99.90;;;;;;5114313;28;20194;-74
2024/03/05 11:54:15;;;;;;;0.70;0.70;;;2.90;99.90;;;;;;5114353;28;20671;-73
2024/03/05 11:56:43;;;;;;;0.70;0.70;;;2.90;99.90;;;;;;5114200;28;20274;-73
2024/03/05 11:59:10;;;;;;;0.77;0.77;;;2.90;99.90;;;;;;5114288;28;20233;-73
2024/03/05 12:01:36;;;;;;;0.70;0.70;;;3.00;99.90;;;;;;5113998;28;20694;-73
2024/03/05 12:04:07;;;;;;;0.77;0.77;;;3.00;99.90;;;;;;5095111;28;20256;-74
2024/03/05 12:06:36;;;;;;;0.70;0.70;;;3.00;99.90;;;;;;5113763;28;20187;-73
2024/03/05 12:09:22;;;;;;;0.80;0.80;;;3.20;99.90;;;;;;5114086;28;20188;-73
2024/03/05 12:12:10;;;;;;;0.80;0.80;;;3.20;99.90;;;;;;5114054;28;20730;-73
2024/03/05 12:14:39;;;;;;;0.80;0.80;;;3.20;99.90;;;;;;5113696;28;20222;-73
2024/03/05 12:17:07;;;;;;;0.77;0.77;;;3.10;99.90;;;;;;5113883;28;20690;-74
2024/03/05 12:19:40;;;;;;;3.72;1.13;;;3.20;99.90;;;;;;5108978;28;20195;-73
2024/03/05 12:22:09;;;;;;;0.52;0.52;;;3.20;99.90;;;;;;5113809;28;20215;-73
2024/03/05 12:24:36;;;;;;;0.77;0.77;;;3.20;99.90;;;;;;5113521;28;20240;-73
2024/03/05 12:27:04;;;;;;;0.80;0.80;;;3.30;99.90;;;;;;5113605;28;20199;-73
2024/03/05 12:29:34;;;;;;;0.73;0.73;;;3.30;99.90;;;;;;5113415;28;20236;-73
2024/03/05 12:32:03;;;;;;;0.70;0.70;;;3.20;99.90;;;;;;5113657;28;20191;-73
2024/03/05 12:34:29;;;;;;;0.70;0.70;;;3.10;99.90;;;;;;5113301;28;20266;-73
2024/03/05 12:36:55;;;;;;;1.25;1.15;;;3.00;99.90;;;;;;5113687;28;20234;-73
2024/03/05 12:39:21;;;;;;;0.80;0.80;;;3.00;99.90;;;;;;5113466;28;20562;-69
2024/03/05 12:42:07;;;;;;;0.63;0.63;;;3.10;99.90;;;;;;5113342;28;20274;-69
2024/03/05 12:44:34;;;;;;;0.80;0.80;;;3.10;99.90;;;;;;5112903;28;20191;-69
2024/03/05 12:47:15;;;;;;;0.50;0.50;;;3.10;99.90;;;;;;5113233;28;20565;-69
2024/03/05 12:49:44;;;;;;;0.80;0.80;;;3.20;99.90;;;;;;5113102;28;20602;-69
2024/03/05 12:52:11;;;;;;;0.73;0.73;;;3.10;99.90;;;;;;5113276;28;20188;-69
2024/03/05 12:54:36;;;;;;;0.82;0.82;;;3.10;99.90;;;;;;5112981;28;20191;-70
2024/03/05 12:57:07;;;;;;;0.80;0.80;;;3.20;99.90;;;;;;5113138;28;20213;-70
2024/03/05 12:59:33;;;;;;;0.90;0.90;;;3.10;99.90;;;;;;5112920;28;20194;-70
2024/03/05 13:01:59;;;;;;;0.60;0.60;;;3.20;99.90;;;;;;5112952;28;20702;-71
2024/03/05 13:04:26;;;;;;;1.42;1.33;;;3.00;99.90;;;;;;5112924;28;20195;-70
2024/03/05 13:06:52;;;;;;;0.65;0.65;;;3.10;99.90;;;;;;5113180;28;20263;-70
2024/03/05 13:09:20;;;;;;;0.60;0.60;;;3.10;99.90;;;;;;5113072;28;20196;-70